sensor_id;sensor_type;location;lat;lon;timestamp;temperature;humidity
42245;DHT22;27912;51.828;5.688;2023-03-04T00:01:12;6.10;99.90
42245;DHT22;27912;51.828;5.688;2023-03-04T00:03:37;6.10;99.90
42245;DHT22;27912;51.828;5.688;2023-03-04T00:06:03;6.10;99.90
42245;DHT22;27912;51.828;5.688;2023-03-04T00:08:29;6.10;99.90
42245;DHT22;27912;51.828;5.688;2023-03-04T00:10:55;6.00;99.90
42245;DHT22;27912;51.828;5.688;2023-03-04T00:13:20;6.10;99.90
42245;DHT22;27912;51.828;5.688;2023-03-04T00:15:47;6.00;99.90
42245;DHT22;27912;51.828;5.688;2023-03-04T00:18:13;6.00;99.90
42245;DHT22;27912;51.828;5.688;2023-03-04T00:20:38;6.00;99.90
42245;DHT22;27912;51.828;5.688;2023-03-04T00:23:04;6.00;99.90
42245;DHT22;27912;51.828;5.688;2023-03-04T00:25:30;6.00;99.90
42245;DHT22;27912;51.828;5.688;2023-03-04T00:27:55;6.00;99.90
42245;DHT22;27912;51.828;5.688;2023-03-04T00:30:22;6.00;99.90
42245;DHT22;27912;51.828;5.688;2023-03-04T00:32:48;6.00;99.90
42245;DHT22;27912;51.828;5.688;2023-03-04T00:35:14;6.00;99.90
42245;DHT22;27912;51.828;5.688;2023-03-04T00:37:39;6.00;99.90
42245;DHT22;27912;51.828;5.688;2023-03-04T00:40:05;6.00;99.90
42245;DHT22;27912;51.828;5.688;2023-03-04T00:42:31;6.00;99.90
42245;DHT22;27912;51.828;5.688;2023-03-04T00:44:56;6.00;99.90
42245;DHT22;27912;51.828;5.688;2023-03-04T00:47:22;6.00;99.90
42245;DHT22;27912;51.828;5.688;2023-03-04T00:49:48;6.00;99.90
42245;DHT22;27912;51.828;5.688;2023-03-04T00:52:13;6.00;99.90
42245;DHT22;27912;51.828;5.688;2023-03-04T00:54:39;6.00;99.90
42245;DHT22;27912;51.828;5.688;2023-03-04T00:57:04;6.00;99.90
42245;DHT22;27912;51.828;5.688;2023-03-04T00:59:30;5.90;99.90
42245;DHT22;27912;51.828;5.688;2023-03-04T01:01:55;6.00;99.90
42245;DHT22;27912;51.828;5.688;2023-03-04T01:04:21;5.90;99.90
42245;DHT22;27912;51.828;5.688;2023-03-04T01:06:46;5.90;99.90
42245;DHT22;27912;51.828;5.688;2023-03-04T01:09:12;5.90;99.90
42245;DHT22;27912;51.828;5.688;2023-03-04T01:11:38;5.90;99.90
42245;DHT22;27912;51.828;5.688;2023-03-04T01:14:03;5.90;99.90
42245;DHT22;27912;51.828;5.688;2023-03-04T01:16:29;5.90;99.90
42245;DHT22;27912;51.828;5.688;2023-03-04T01:18:54;5.90;99.90
42245;DHT22;27912;51.828;5.688;2023-03-04T01:21:20;5.90;99.90
42245;DHT22;27912;51.828;5.688;2023-03-04T01:23:46;5.90;99.90
42245;DHT22;27912;51.828;5.688;2023-03-04T01:26:12;5.90;99.90
42245;DHT22;27912;51.828;5.688;2023-03-04T01:28:38;5.90;99.90
42245;DHT22;27912;51.828;5.688;2023-03-04T01:31:04;5.90;99.90
42245;DHT22;27912;51.828;5.688;2023-03-04T01:33:30;5.90;99.90
42245;DHT22;27912;51.828;5.688;2023-03-04T01:35:56;5.90;99.90
42245;DHT22;27912;51.828;5.688;2023-03-04T01:38:22;5.90;99.90
42245;DHT22;27912;51.828;5.688;2023-03-04T01:40:49;5.90;99.90
42245;DHT22;27912;51.828;5.688;2023-03-04T01:43:19;5.90;99.90
42245;DHT22;27912;51.828;5.688;2023-03-04T01:45:47;5.90;99.90
42245;DHT22;27912;51.828;5.688;2023-03-04T01:48:16;5.90;99.90
42245;DHT22;27912;51.828;5.688;2023-03-04T01:50:42;5.90;99.90
42245;DHT22;27912;51.828;5.688;2023-03-04T01:53:25;5.90;99.90
42245;DHT22;27912;51.828;5.688;2023-03-04T01:55:53;5.90;99.90
42245;DHT22;27912;51.828;5.688;2023-03-04T01:58:20;5.80;99.90
42245;DHT22;27912;51.828;5.688;2023-03-04T02:00:46;5.80;99.90
42245;DHT22;27912;51.828;5.688;2023-03-04T02:03:17;5.80;99.90
42245;DHT22;27912;51.828;5.688;2023-03-04T02:05:48;5.80;99.90
42245;DHT22;27912;51.828;5.688;2023-03-04T02:08:15;5.80;99.90
42245;DHT22;27912;51.828;5.688;2023-03-04T02:10:43;5.80;99.90
42245;DHT22;27912;51.828;5.688;2023-03-04T02:13:09;5.80;99.90
42245;DHT22;27912;51.828;5.688;2023-03-04T02:15:35;5.80;99.90
42245;DHT22;27912;51.828;5.688;2023-03-04T02:18:01;5.80;99.90
42245;DHT22;27912;51.828;5.688;2023-03-04T02:20:51;5.80;99.90
42245;DHT22;27912;51.828;5.688;2023-03-04T02:28:42;5.80;99.90
42245;DHT22;27912;51.828;5.688;2023-03-04T02:31:35;5.80;99.90
42245;DHT22;27912;51.828;5.688;2023-03-04T02:34:06;5.80;99.90
42245;DHT22;27912;51.828;5.688;2023-03-04T02:36:34;5.80;99.90
42245;DHT22;27912;51.828;5.688;2023-03-04T02:39:04;5.80;99.90
42245;DHT22;27912;51.828;5.688;2023-03-04T02:41:31;5.80;99.90
42245;DHT22;27912;51.828;5.688;2023-03-04T02:43:57;5.80;99.90
42245;DHT22;27912;51.828;5.688;2023-03-04T02:46:23;5.80;99.90
42245;DHT22;27912;51.828;5.688;2023-03-04T02:48:49;5.70;99.90
42245;DHT22;27912;51.828;5.688;2023-03-04T02:51:15;5.70;99.90
42245;DHT22;27912;51.828;5.688;2023-03-04T02:53:41;5.70;99.90
42245;DHT22;27912;51.828;5.688;2023-03-04T02:56:06;5.70;99.90
42245;DHT22;27912;51.828;5.688;2023-03-04T02:58:32;5.70;99.90
42245;DHT22;27912;51.828;5.688;2023-03-04T03:00:58;5.70;99.90
42245;DHT22;27912;51.828;5.688;2023-03-04T03:03:23;5.70;99.90
42245;DHT22;27912;51.828;5.688;2023-03-04T03:05:49;5.80;99.90
42245;DHT22;27912;51.828;5.688;2023-03-04T03:08:15;5.80;99.90
42245;DHT22;27912;51.828;5.688;2023-03-04T03:10:40;5.80;99.90
42245;DHT22;27912;51.828;5.688;2023-03-04T03:13:06;5.80;99.90
42245;DHT22;27912;51.828;5.688;2023-03-04T03:15:31;5.80;99.90
42245;DHT22;27912;51.828;5.688;2023-03-04T03:17:57;5.80;99.90
42245;DHT22;27912;51.828;5.688;2023-03-04T03:20:23;5.80;99.90
42245;DHT22;27912;51.828;5.688;2023-03-04T03:22:48;5.80;99.90
42245;DHT22;27912;51.828;5.688;2023-03-04T03:25:15;5.80;99.90
42245;DHT22;27912;51.828;5.688;2023-03-04T03:27:40;5.80;99.90
42245;DHT22;27912;51.828;5.688;2023-03-04T03:30:09;5.80;99.90
42245;DHT22;27912;51.828;5.688;2023-03-04T03:32:34;5.80;99.90
42245;DHT22;27912;51.828;5.688;2023-03-04T03:35:00;5.80;99.90
42245;DHT22;27912;51.828;5.688;2023-03-04T03:37:26;5.80;99.90
42245;DHT22;27912;51.828;5.688;2023-03-04T03:39:51;5.80;99.90
42245;DHT22;27912;51.828;5.688;2023-03-04T03:42:17;5.80;99.90
42245;DHT22;27912;51.828;5.688;2023-03-04T03:44:42;5.80;99.90
42245;DHT22;27912;51.828;5.688;2023-03-04T03:47:08;5.80;99.90
42245;DHT22;27912;51.828;5.688;2023-03-04T03:49:33;5.80;99.90
42245;DHT22;27912;51.828;5.688;2023-03-04T03:51:59;5.80;99.90
42245;DHT22;27912;51.828;5.688;2023-03-04T03:54:24;5.80;99.90
42245;DHT22;27912;51.828;5.688;2023-03-04T03:56:50;5.80;99.90
42245;DHT22;27912;51.828;5.688;2023-03-04T03:59:15;5.70;99.90
42245;DHT22;27912;51.828;5.688;2023-03-04T04:01:41;5.70;99.90
42245;DHT22;27912;51.828;5.688;2023-03-04T04:04:06;5.70;99.90
42245;DHT22;27912;51.828;5.688;2023-03-04T04:06:32;5.70;99.90
42245;DHT22;27912;51.828;5.688;2023-03-04T04:08:57;5.70;99.90
42245;DHT22;27912;51.828;5.688;2023-03-04T04:11:23;5.80;99.90
42245;DHT22;27912;51.828;5.688;2023-03-04T04:13:48;5.70;99.90
42245;DHT22;27912;51.828;5.688;2023-03-04T04:16:14;5.70;99.90
42245;DHT22;27912;51.828;5.688;2023-03-04T04:18:39;5.70;99.90
42245;DHT22;27912;51.828;5.688;2023-03-04T04:21:05;5.70;99.90
42245;DHT22;27912;51.828;5.688;2023-03-04T04:23:31;5.70;99.90
42245;DHT22;27912;51.828;5.688;2023-03-04T04:25:57;5.70;99.90
42245;DHT22;27912;51.828;5.688;2023-03-04T04:28:23;5.70;99.90
42245;DHT22;27912;51.828;5.688;2023-03-04T04:30:49;5.70;99.90
42245;DHT22;27912;51.828;5.688;2023-03-04T04:33:15;5.70;99.90
42245;DHT22;27912;51.828;5.688;2023-03-04T04:35:41;5.70;99.90
42245;DHT22;27912;51.828;5.688;2023-03-04T04:38:07;5.70;99.90
42245;DHT22;27912;51.828;5.688;2023-03-04T04:40:33;5.70;99.90
42245;DHT22;27912;51.828;5.688;2023-03-04T04:42:59;5.70;99.90
42245;DHT22;27912;51.828;5.688;2023-03-04T04:45:24;5.70;99.90
42245;DHT22;27912;51.828;5.688;2023-03-04T04:47:51;5.70;99.90
42245;DHT22;27912;51.828;5.688;2023-03-04T04:50:16;5.70;99.90
42245;DHT22;27912;51.828;5.688;2023-03-04T04:52:42;5.70;99.90
42245;DHT22;27912;51.828;5.688;2023-03-04T04:55:08;5.60;99.90
42245;DHT22;27912;51.828;5.688;2023-03-04T04:57:34;5.70;99.90
42245;DHT22;27912;51.828;5.688;2023-03-04T05:00:00;5.70;99.90
42245;DHT22;27912;51.828;5.688;2023-03-04T05:02:25;5.70;99.90
42245;DHT22;27912;51.828;5.688;2023-03-04T05:04:51;5.70;99.90
42245;DHT22;27912;51.828;5.688;2023-03-04T05:07:17;5.60;99.90
42245;DHT22;27912;51.828;5.688;2023-03-04T05:09:43;5.60;99.90
42245;DHT22;27912;51.828;5.688;2023-03-04T05:12:08;5.70;99.90
42245;DHT22;27912;51.828;5.688;2023-03-04T05:14:34;5.70;99.90
42245;DHT22;27912;51.828;5.688;2023-03-04T05:16:59;5.60;99.90
42245;DHT22;27912;51.828;5.688;2023-03-04T05:19:25;5.60;99.90
42245;DHT22;27912;51.828;5.688;2023-03-04T05:21:50;5.60;99.90
42245;DHT22;27912;51.828;5.688;2023-03-04T05:24:16;5.60;99.90
42245;DHT22;27912;51.828;5.688;2023-03-04T05:26:41;5.60;99.90
42245;DHT22;27912;51.828;5.688;2023-03-04T05:29:07;5.60;99.90
42245;DHT22;27912;51.828;5.688;2023-03-04T05:31:32;5.60;99.90
42245;DHT22;27912;51.828;5.688;2023-03-04T05:33:58;5.60;99.90
42245;DHT22;27912;51.828;5.688;2023-03-04T05:36:23;5.60;99.90
42245;DHT22;27912;51.828;5.688;2023-03-04T05:38:49;5.60;99.90
42245;DHT22;27912;51.828;5.688;2023-03-04T05:41:14;5.60;99.90
42245;DHT22;27912;51.828;5.688;2023-03-04T05:43:43;5.60;99.90
42245;DHT22;27912;51.828;5.688;2023-03-04T05:46:12;5.60;99.90
42245;DHT22;27912;51.828;5.688;2023-03-04T05:48:39;5.60;99.90
42245;DHT22;27912;51.828;5.688;2023-03-04T05:51:05;5.60;99.90
42245;DHT22;27912;51.828;5.688;2023-03-04T05:53:30;5.60;99.90
42245;DHT22;27912;51.828;5.688;2023-03-04T05:55:56;5.60;99.90
42245;DHT22;27912;51.828;5.688;2023-03-04T05:58:23;5.60;99.90
42245;DHT22;27912;51.828;5.688;2023-03-04T06:00:49;5.60;99.90
42245;DHT22;27912;51.828;5.688;2023-03-04T06:03:20;5.60;99.90
42245;DHT22;27912;51.828;5.688;2023-03-04T06:05:46;5.60;99.90
42245;DHT22;27912;51.828;5.688;2023-03-04T06:08:12;5.60;99.90
42245;DHT22;27912;51.828;5.688;2023-03-04T06:10:39;5.60;99.90
42245;DHT22;27912;51.828;5.688;2023-03-04T06:13:05;5.50;99.90
42245;DHT22;27912;51.828;5.688;2023-03-04T06:15:30;5.50;99.90
42245;DHT22;27912;51.828;5.688;2023-03-04T06:17:56;5.50;99.90
42245;DHT22;27912;51.828;5.688;2023-03-04T06:20:22;5.50;99.90
42245;DHT22;27912;51.828;5.688;2023-03-04T06:22:47;5.60;99.90
42245;DHT22;27912;51.828;5.688;2023-03-04T06:25:13;5.60;99.90
42245;DHT22;27912;51.828;5.688;2023-03-04T06:27:39;5.50;99.90
42245;DHT22;27912;51.828;5.688;2023-03-04T06:30:05;5.50;99.90
42245;DHT22;27912;51.828;5.688;2023-03-04T06:32:31;5.50;99.90
42245;DHT22;27912;51.828;5.688;2023-03-04T06:34:56;5.60;99.90
42245;DHT22;27912;51.828;5.688;2023-03-04T06:37:22;5.50;99.90
42245;DHT22;27912;51.828;5.688;2023-03-04T06:39:47;5.50;99.90
42245;DHT22;27912;51.828;5.688;2023-03-04T06:42:13;5.50;99.90
42245;DHT22;27912;51.828;5.688;2023-03-04T06:44:39;5.50;99.90
42245;DHT22;27912;51.828;5.688;2023-03-04T06:47:04;5.50;99.90
42245;DHT22;27912;51.828;5.688;2023-03-04T06:49:30;5.50;99.90
42245;DHT22;27912;51.828;5.688;2023-03-04T06:51:56;5.50;99.90
42245;DHT22;27912;51.828;5.688;2023-03-04T06:54:21;5.50;99.90
42245;DHT22;27912;51.828;5.688;2023-03-04T06:56:47;5.50;99.90
42245;DHT22;27912;51.828;5.688;2023-03-04T06:59:12;5.50;99.90
42245;DHT22;27912;51.828;5.688;2023-03-04T07:01:38;5.50;99.90
42245;DHT22;27912;51.828;5.688;2023-03-04T07:04:03;5.50;99.90
42245;DHT22;27912;51.828;5.688;2023-03-04T07:06:29;5.60;99.90
42245;DHT22;27912;51.828;5.688;2023-03-04T07:08:56;5.50;99.90
42245;DHT22;27912;51.828;5.688;2023-03-04T07:11:22;5.50;99.90
42245;DHT22;27912;51.828;5.688;2023-03-04T07:13:49;5.60;99.90
42245;DHT22;27912;51.828;5.688;2023-03-04T07:16:17;5.60;99.90
42245;DHT22;27912;51.828;5.688;2023-03-04T07:18:43;5.60;99.90
42245;DHT22;27912;51.828;5.688;2023-03-04T07:21:09;5.60;99.90
42245;DHT22;27912;51.828;5.688;2023-03-04T07:23:35;5.60;99.90
42245;DHT22;27912;51.828;5.688;2023-03-04T07:26:01;5.60;99.90
42245;DHT22;27912;51.828;5.688;2023-03-04T07:28:27;5.60;99.90
42245;DHT22;27912;51.828;5.688;2023-03-04T07:30:53;5.60;99.90
42245;DHT22;27912;51.828;5.688;2023-03-04T07:33:18;5.70;99.90
42245;DHT22;27912;51.828;5.688;2023-03-04T07:35:44;5.70;99.90
42245;DHT22;27912;51.828;5.688;2023-03-04T07:38:09;5.60;99.90
42245;DHT22;27912;51.828;5.688;2023-03-04T07:40:35;5.70;99.90
42245;DHT22;27912;51.828;5.688;2023-03-04T07:43:01;5.70;99.90
42245;DHT22;27912;51.828;5.688;2023-03-04T07:45:27;5.70;99.90
42245;DHT22;27912;51.828;5.688;2023-03-04T07:47:52;5.80;99.90
42245;DHT22;27912;51.828;5.688;2023-03-04T07:50:19;5.80;99.90
42245;DHT22;27912;51.828;5.688;2023-03-04T07:52:47;5.90;99.90
42245;DHT22;27912;51.828;5.688;2023-03-04T07:55:14;5.80;99.90
42245;DHT22;27912;51.828;5.688;2023-03-04T07:57:41;5.80;99.90
42245;DHT22;27912;51.828;5.688;2023-03-04T08:00:08;5.70;99.90
42245;DHT22;27912;51.828;5.688;2023-03-04T08:02:34;5.70;99.90
42245;DHT22;27912;51.828;5.688;2023-03-04T08:05:00;5.70;99.90
42245;DHT22;27912;51.828;5.688;2023-03-04T08:07:25;5.80;99.90
42245;DHT22;27912;51.828;5.688;2023-03-04T08:09:51;5.90;99.90
42245;DHT22;27912;51.828;5.688;2023-03-04T08:12:17;6.00;99.90
42245;DHT22;27912;51.828;5.688;2023-03-04T08:14:42;6.00;99.90
42245;DHT22;27912;51.828;5.688;2023-03-04T08:17:08;6.10;99.90
42245;DHT22;27912;51.828;5.688;2023-03-04T08:19:34;6.10;99.90
42245;DHT22;27912;51.828;5.688;2023-03-04T08:22:00;6.20;99.90
42245;DHT22;27912;51.828;5.688;2023-03-04T08:24:26;6.30;99.90
42245;DHT22;27912;51.828;5.688;2023-03-04T08:26:51;6.30;99.90
42245;DHT22;27912;51.828;5.688;2023-03-04T08:29:20;6.40;99.90
42245;DHT22;27912;51.828;5.688;2023-03-04T08:31:47;6.40;99.90
42245;DHT22;27912;51.828;5.688;2023-03-04T08:34:12;6.40;99.90
42245;DHT22;27912;51.828;5.688;2023-03-04T08:36:40;6.50;99.90
42245;DHT22;27912;51.828;5.688;2023-03-04T08:39:07;6.50;99.90
42245;DHT22;27912;51.828;5.688;2023-03-04T08:41:34;6.40;99.90
42245;DHT22;27912;51.828;5.688;2023-03-04T08:44:00;6.50;99.90
42245;DHT22;27912;51.828;5.688;2023-03-04T08:46:25;6.50;99.90
42245;DHT22;27912;51.828;5.688;2023-03-04T08:48:51;6.60;99.90
42245;DHT22;27912;51.828;5.688;2023-03-04T08:51:17;6.70;99.90
42245;DHT22;27912;51.828;5.688;2023-03-04T08:53:43;6.70;99.90
42245;DHT22;27912;51.828;5.688;2023-03-04T08:56:09;6.70;99.90
42245;DHT22;27912;51.828;5.688;2023-03-04T08:58:35;6.80;99.90
42245;DHT22;27912;51.828;5.688;2023-03-04T09:01:01;6.80;99.90
42245;DHT22;27912;51.828;5.688;2023-03-04T09:03:28;6.90;99.90
42245;DHT22;27912;51.828;5.688;2023-03-04T09:05:53;6.90;99.90
42245;DHT22;27912;51.828;5.688;2023-03-04T09:08:19;7.00;99.90
42245;DHT22;27912;51.828;5.688;2023-03-04T09:10:45;7.10;99.90
42245;DHT22;27912;51.828;5.688;2023-03-04T09:13:12;7.10;99.90
42245;DHT22;27912;51.828;5.688;2023-03-04T09:15:45;7.20;99.90
42245;DHT22;27912;51.828;5.688;2023-03-04T09:18:11;7.20;99.90
42245;DHT22;27912;51.828;5.688;2023-03-04T09:20:37;7.20;99.90
42245;DHT22;27912;51.828;5.688;2023-03-04T09:23:02;7.30;99.90
42245;DHT22;27912;51.828;5.688;2023-03-04T09:25:28;7.30;99.90
42245;DHT22;27912;51.828;5.688;2023-03-04T09:27:53;7.40;99.90
42245;DHT22;27912;51.828;5.688;2023-03-04T09:30:19;7.40;99.90
42245;DHT22;27912;51.828;5.688;2023-03-04T09:32:45;7.40;99.90
42245;DHT22;27912;51.828;5.688;2023-03-04T09:35:11;7.30;99.90
42245;DHT22;27912;51.828;5.688;2023-03-04T09:37:36;7.30;99.90
42245;DHT22;27912;51.828;5.688;2023-03-04T09:40:04;7.40;99.90
42245;DHT22;27912;51.828;5.688;2023-03-04T09:42:42;7.50;99.90
42245;DHT22;27912;51.828;5.688;2023-03-04T09:45:16;7.50;99.90
42245;DHT22;27912;51.828;5.688;2023-03-04T09:47:43;7.40;99.90
42245;DHT22;27912;51.828;5.688;2023-03-04T09:50:10;7.40;99.90
42245;DHT22;27912;51.828;5.688;2023-03-04T09:55:40;7.30;99.90
42245;DHT22;27912;51.828;5.688;2023-03-04T09:58:20;7.30;99.90
42245;DHT22;27912;51.828;5.688;2023-03-04T10:00:57;7.20;99.90
42245;DHT22;27912;51.828;5.688;2023-03-04T10:03:23;7.00;99.90
42245;DHT22;27912;51.828;5.688;2023-03-04T10:05:59;7.00;99.90
42245;DHT22;27912;51.828;5.688;2023-03-04T10:08:44;7.10;99.90
42245;DHT22;27912;51.828;5.688;2023-03-04T10:11:44;7.30;99.90
42245;DHT22;27912;51.828;5.688;2023-03-04T10:14:24;7.50;99.90
42245;DHT22;27912;51.828;5.688;2023-03-04T10:17:18;7.60;99.90
42245;DHT22;27912;51.828;5.688;2023-03-04T10:19:57;7.80;99.90
42245;DHT22;27912;51.828;5.688;2023-03-04T10:22:32;7.90;99.90
42245;DHT22;27912;51.828;5.688;2023-03-04T10:27:39;7.80;99.90
42245;DHT22;27912;51.828;5.688;2023-03-04T10:32:56;7.90;99.90
42245;DHT22;27912;51.828;5.688;2023-03-04T10:35:26;7.90;99.90
42245;DHT22;27912;51.828;5.688;2023-03-04T10:38:01;8.00;99.90
42245;DHT22;27912;51.828;5.688;2023-03-04T10:40:27;8.10;99.90
42245;DHT22;27912;51.828;5.688;2023-03-04T10:42:53;8.10;99.90
42245;DHT22;27912;51.828;5.688;2023-03-04T10:45:24;8.10;99.90
42245;DHT22;27912;51.828;5.688;2023-03-04T10:47:54;8.20;99.90
42245;DHT22;27912;51.828;5.688;2023-03-04T10:50:26;8.30;99.90
42245;DHT22;27912;51.828;5.688;2023-03-04T10:52:53;8.20;99.90
42245;DHT22;27912;51.828;5.688;2023-03-04T10:55:49;8.20;99.90
42245;DHT22;27912;51.828;5.688;2023-03-04T10:58:16;8.10;99.90
42245;DHT22;27912;51.828;5.688;2023-03-04T11:01:03;8.00;99.90
42245;DHT22;27912;51.828;5.688;2023-03-04T11:03:34;8.00;99.90
42245;DHT22;27912;51.828;5.688;2023-03-04T11:06:11;8.00;99.90
42245;DHT22;27912;51.828;5.688;2023-03-04T11:08:40;8.10;99.90
42245;DHT22;27912;51.828;5.688;2023-03-04T11:11:31;8.30;99.90
42245;DHT22;27912;51.828;5.688;2023-03-04T11:14:15;8.50;99.90
42245;DHT22;27912;51.828;5.688;2023-03-04T11:16:51;8.50;99.90
42245;DHT22;27912;51.828;5.688;2023-03-04T11:19:19;8.40;99.90
42245;DHT22;27912;51.828;5.688;2023-03-04T11:21:46;8.30;99.90
42245;DHT22;27912;51.828;5.688;2023-03-04T11:24:24;8.30;99.90
42245;DHT22;27912;51.828;5.688;2023-03-04T11:30:33;8.40;99.90
42245;DHT22;27912;51.828;5.688;2023-03-04T11:36:07;8.30;99.90
42245;DHT22;27912;51.828;5.688;2023-03-04T11:38:41;8.40;99.90
42245;DHT22;27912;51.828;5.688;2023-03-04T11:41:27;8.40;99.90
42245;DHT22;27912;51.828;5.688;2023-03-04T11:43:54;8.50;99.90
42245;DHT22;27912;51.828;5.688;2023-03-04T11:46:43;8.80;99.90
42245;DHT22;27912;51.828;5.688;2023-03-04T11:49:38;9.00;99.90
42245;DHT22;27912;51.828;5.688;2023-03-04T11:57:44;8.80;99.90
42245;DHT22;27912;51.828;5.688;2023-03-04T12:06:17;8.80;99.90
42245;DHT22;27912;51.828;5.688;2023-03-04T12:09:07;8.90;99.90
42245;DHT22;27912;51.828;5.688;2023-03-04T12:11:59;8.90;99.90
42245;DHT22;27912;51.828;5.688;2023-03-04T12:14:51;9.00;99.90
42245;DHT22;27912;51.828;5.688;2023-03-04T12:17:43;8.90;99.90
42245;DHT22;27912;51.828;5.688;2023-03-04T12:20:22;8.90;99.90
42245;DHT22;27912;51.828;5.688;2023-03-04T12:25:47;8.70;99.90
42245;DHT22;27912;51.828;5.688;2023-03-04T12:34:23;8.50;99.90
42245;DHT22;27912;51.828;5.688;2023-03-04T12:37:08;8.30;99.90
42245;DHT22;27912;51.828;5.688;2023-03-04T12:40:02;7.90;99.90
42245;DHT22;27912;51.828;5.688;2023-03-04T12:48:05;7.50;99.90
42245;DHT22;27912;51.828;5.688;2023-03-04T12:53:35;7.80;99.90
42245;DHT22;27912;51.828;5.688;2023-03-04T12:56:03;8.10;99.90
42245;DHT22;27912;51.828;5.688;2023-03-04T12:58:31;8.20;99.90
42245;DHT22;27912;51.828;5.688;2023-03-04T13:01:11;8.40;99.90
42245;DHT22;27912;51.828;5.688;2023-03-04T13:08:55;8.70;99.90
42245;DHT22;27912;51.828;5.688;2023-03-04T13:16:56;9.10;99.90
42245;DHT22;27912;51.828;5.688;2023-03-04T13:24:51;9.10;99.90
42245;DHT22;27912;51.828;5.688;2023-03-04T13:27:46;9.00;99.90
42245;DHT22;27912;51.828;5.688;2023-03-04T13:32:56;8.80;99.90
42245;DHT22;27912;51.828;5.688;2023-03-04T13:43:49;9.00;99.90
42245;DHT22;27912;51.828;5.688;2023-03-04T13:51:44;9.30;99.90
42245;DHT22;27912;51.828;5.688;2023-03-04T13:54:30;9.30;99.90
42245;DHT22;27912;51.828;5.688;2023-03-04T13:59:37;9.40;99.90
42245;DHT22;27912;51.828;5.688;2023-03-04T14:02:20;9.40;99.90
42245;DHT22;27912;51.828;5.688;2023-03-04T14:07:30;9.50;99.90
42245;DHT22;27912;51.828;5.688;2023-03-04T14:12:28;9.30;99.90
42245;DHT22;27912;51.828;5.688;2023-03-04T14:14:57;9.20;99.90
42245;DHT22;27912;51.828;5.688;2023-03-04T14:17:32;9.10;99.90
42245;DHT22;27912;51.828;5.688;2023-03-04T14:20:01;9.00;99.90
42245;DHT22;27912;51.828;5.688;2023-03-04T14:22:30;8.90;99.90
42245;DHT22;27912;51.828;5.688;2023-03-04T14:25:02;8.90;99.90
42245;DHT22;27912;51.828;5.688;2023-03-04T14:27:30;8.90;99.90
42245;DHT22;27912;51.828;5.688;2023-03-04T14:29:59;8.80;99.90
42245;DHT22;27912;51.828;5.688;2023-03-04T14:32:26;8.70;99.90
42245;DHT22;27912;51.828;5.688;2023-03-04T14:35:00;8.60;99.90
42245;DHT22;27912;51.828;5.688;2023-03-04T14:37:42;8.50;99.90
42245;DHT22;27912;51.828;5.688;2023-03-04T14:40:19;8.40;99.90
42245;DHT22;27912;51.828;5.688;2023-03-04T14:42:46;8.30;99.90
42245;DHT22;27912;51.828;5.688;2023-03-04T14:45:15;8.30;99.90
42245;DHT22;27912;51.828;5.688;2023-03-04T14:47:45;8.30;99.90
42245;DHT22;27912;51.828;5.688;2023-03-04T14:50:18;8.20;99.90
42245;DHT22;27912;51.828;5.688;2023-03-04T14:52:48;8.20;99.90
42245;DHT22;27912;51.828;5.688;2023-03-04T14:55:21;8.10;99.90
42245;DHT22;27912;51.828;5.688;2023-03-04T14:57:49;8.00;99.90
42245;DHT22;27912;51.828;5.688;2023-03-04T15:00:28;8.10;99.90
42245;DHT22;27912;51.828;5.688;2023-03-04T15:02:57;8.20;99.90
42245;DHT22;27912;51.828;5.688;2023-03-04T15:05:30;8.20;99.90
42245;DHT22;27912;51.828;5.688;2023-03-04T15:10:32;8.10;99.90
42245;DHT22;27912;51.828;5.688;2023-03-04T15:13:00;8.10;99.90
42245;DHT22;27912;51.828;5.688;2023-03-04T15:15:40;8.00;99.90
42245;DHT22;27912;51.828;5.688;2023-03-04T15:18:21;8.00;99.90
42245;DHT22;27912;51.828;5.688;2023-03-04T15:21:33;7.90;99.90
42245;DHT22;27912;51.828;5.688;2023-03-04T15:23:57;7.90;99.90
42245;DHT22;27912;51.828;5.688;2023-03-04T15:26:23;7.90;99.90
42245;DHT22;27912;51.828;5.688;2023-03-04T15:28:48;7.90;99.90
42245;DHT22;27912;51.828;5.688;2023-03-04T15:31:22;7.90;99.90
42245;DHT22;27912;51.828;5.688;2023-03-04T15:33:49;7.90;99.90
42245;DHT22;27912;51.828;5.688;2023-03-04T15:36:19;7.90;99.90
42245;DHT22;27912;51.828;5.688;2023-03-04T15:38:48;8.00;99.90
42245;DHT22;27912;51.828;5.688;2023-03-04T15:41:18;8.10;99.90
42245;DHT22;27912;51.828;5.688;2023-03-04T15:43:45;8.20;99.90
42245;DHT22;27912;51.828;5.688;2023-03-04T15:46:11;8.20;99.90
42245;DHT22;27912;51.828;5.688;2023-03-04T15:48:36;8.30;99.90
42245;DHT22;27912;51.828;5.688;2023-03-04T15:51:02;8.20;99.90
42245;DHT22;27912;51.828;5.688;2023-03-04T15:53:35;8.20;99.90
42245;DHT22;27912;51.828;5.688;2023-03-04T15:56:03;8.10;99.90
42245;DHT22;27912;51.828;5.688;2023-03-04T15:58:29;8.00;99.90
42245;DHT22;27912;51.828;5.688;2023-03-04T16:00:56;8.00;99.90
42245;DHT22;27912;51.828;5.688;2023-03-04T16:03:22;8.00;99.90
42245;DHT22;27912;51.828;5.688;2023-03-04T16:05:50;7.90;99.90
42245;DHT22;27912;51.828;5.688;2023-03-04T16:08:18;7.90;99.90
42245;DHT22;27912;51.828;5.688;2023-03-04T16:10:44;7.80;99.90
42245;DHT22;27912;51.828;5.688;2023-03-04T16:13:15;7.80;99.90
42245;DHT22;27912;51.828;5.688;2023-03-04T16:15:41;7.80;99.90
42245;DHT22;27912;51.828;5.688;2023-03-04T16:18:08;7.70;99.90
42245;DHT22;27912;51.828;5.688;2023-03-04T16:20:34;7.70;99.90
42245;DHT22;27912;51.828;5.688;2023-03-04T16:23:01;7.70;99.90
42245;DHT22;27912;51.828;5.688;2023-03-04T16:25:27;7.70;99.90
42245;DHT22;27912;51.828;5.688;2023-03-04T16:27:54;7.70;99.90
42245;DHT22;27912;51.828;5.688;2023-03-04T16:30:27;7.60;99.90
42245;DHT22;27912;51.828;5.688;2023-03-04T16:32:53;7.60;99.90
42245;DHT22;27912;51.828;5.688;2023-03-04T16:35:19;7.60;99.90
42245;DHT22;27912;51.828;5.688;2023-03-04T16:37:46;7.60;99.90
42245;DHT22;27912;51.828;5.688;2023-03-04T16:40:14;7.60;99.90
42245;DHT22;27912;51.828;5.688;2023-03-04T16:42:40;7.50;99.90
42245;DHT22;27912;51.828;5.688;2023-03-04T16:45:10;7.50;99.90
42245;DHT22;27912;51.828;5.688;2023-03-04T16:47:39;7.40;99.90
42245;DHT22;27912;51.828;5.688;2023-03-04T16:50:04;7.40;99.90
42245;DHT22;27912;51.828;5.688;2023-03-04T16:52:31;7.30;99.90
42245;DHT22;27912;51.828;5.688;2023-03-04T16:54:57;7.30;99.90
42245;DHT22;27912;51.828;5.688;2023-03-04T16:57:24;7.20;99.90
42245;DHT22;27912;51.828;5.688;2023-03-04T16:59:53;7.20;99.90
42245;DHT22;27912;51.828;5.688;2023-03-04T17:02:21;7.10;99.90
42245;DHT22;27912;51.828;5.688;2023-03-04T17:04:48;7.10;99.90
42245;DHT22;27912;51.828;5.688;2023-03-04T17:07:15;7.10;99.90
42245;DHT22;27912;51.828;5.688;2023-03-04T17:09:41;7.10;99.90
42245;DHT22;27912;51.828;5.688;2023-03-04T17:12:10;7.00;99.90
42245;DHT22;27912;51.828;5.688;2023-03-04T17:14:36;7.00;99.90
42245;DHT22;27912;51.828;5.688;2023-03-04T17:17:04;7.00;99.90
42245;DHT22;27912;51.828;5.688;2023-03-04T17:19:29;7.00;99.90
42245;DHT22;27912;51.828;5.688;2023-03-04T17:21:56;7.00;99.90
42245;DHT22;27912;51.828;5.688;2023-03-04T17:24:22;6.90;99.90
42245;DHT22;27912;51.828;5.688;2023-03-04T17:26:48;6.90;99.90